createdAt,value
2022-09-02T00:01:30.313Z,15.83
2022-09-02T00:07:06.302Z,15.81
2022-09-02T00:12:44.172Z,15.80
2022-09-02T00:15:34.323Z,15.87
2022-09-02T00:18:23.851Z,15.73
2022-09-02T00:23:52.611Z,15.79
2022-09-02T00:29:33.201Z,15.62
2022-09-02T00:35:02.947Z,15.56
2022-09-02T00:37:52.447Z,15.46
2022-09-02T00:40:44.935Z,15.49
2022-09-02T00:46:32.302Z,15.53
2022-09-02T00:49:24.528Z,15.36
2022-09-02T00:52:15.883Z,15.36
2022-09-02T00:55:09.157Z,15.39
2022-09-02T00:58:00.779Z,15.31
2022-09-02T01:00:52.457Z,15.33
2022-09-02T01:03:41.973Z,15.33
2022-09-02T01:09:14.454Z,15.39
2022-09-02T01:12:04.046Z,15.39
2022-09-02T01:17:34.629Z,15.36
2022-09-02T01:20:28.635Z,15.24
2022-09-02T01:23:18.543Z,15.23
2022-09-02T01:28:53.738Z,15.19
2022-09-02T01:34:29.179Z,15.09
2022-09-02T01:37:18.349Z,15.05
2022-09-02T01:40:10.214Z,15.05
2022-09-02T01:43:02.216Z,15.05
2022-09-02T01:45:52.125Z,15.04
2022-09-02T01:48:43.244Z,15.02
2022-09-02T01:54:17.575Z,14.81
2022-09-02T01:59:55.468Z,14.89
2022-09-02T02:05:32.839Z,14.79
2022-09-02T02:11:13.005Z,14.84
2022-09-02T02:16:58.533Z,14.76
2022-09-02T02:22:57.299Z,14.75
2022-09-02T02:28:38.829Z,14.65
2022-09-02T02:31:27.924Z,14.62
2022-09-02T02:34:18.873Z,14.61
2022-09-02T02:37:07.424Z,14.64
2022-09-02T02:42:41.492Z,14.62
2022-09-02T02:48:19.708Z,14.54
2022-09-02T02:53:58.997Z,14.63
2022-09-02T02:56:47.671Z,14.51
2022-09-02T02:59:37.332Z,14.52
2022-09-02T03:02:26.086Z,14.46
2022-09-02T03:05:15.479Z,14.43
2022-09-02T03:10:57.567Z,14.42
2022-09-02T03:16:33.757Z,14.32
2022-09-02T03:19:41.186Z,14.29
2022-09-02T03:22:32.165Z,14.31
2022-09-02T03:28:05.319Z,14.33
2022-09-02T03:33:42.182Z,14.31
2022-09-02T03:36:32.866Z,14.26
2022-09-02T03:42:05.740Z,14.38
2022-09-02T03:44:54.524Z,14.43
2022-09-02T03:50:27.488Z,14.17
2022-09-02T03:55:59.162Z,14.06
2022-09-02T03:58:49.283Z,13.99
2022-09-02T04:01:38.326Z,13.81
2022-09-02T04:04:26.859Z,13.97
2022-09-02T04:07:16.214Z,13.94
2022-09-02T04:12:52.803Z,13.83
2022-09-02T04:15:43.898Z,13.77
2022-09-02T04:24:09.960Z,13.97
2022-09-02T04:27:03.357Z,13.84
2022-09-02T04:32:31.438Z,13.68
2022-09-02T04:38:12.010Z,13.78
2022-09-02T04:41:01.215Z,13.61
2022-09-02T04:43:50.741Z,13.72
2022-09-02T04:49:32.726Z,13.64
2022-09-02T04:55:10.321Z,13.60
2022-09-02T04:57:58.775Z,13.65
2022-09-02T05:00:49.165Z,13.69
2022-09-02T05:06:21.751Z,13.72
2022-09-02T05:09:10.627Z,13.65
2022-09-02T05:12:01.987Z,13.66
2022-09-02T05:17:41.276Z,13.69
2022-09-02T05:23:18.578Z,13.88
2022-09-02T05:28:55.877Z,13.90
2022-09-02T05:37:38.595Z,14.27
2022-09-02T05:40:28.849Z,14.36
2022-09-02T05:43:18.539Z,14.59
2022-09-02T05:49:08.968Z,14.81
2022-09-02T05:51:58.700Z,14.66
2022-09-02T05:57:28.643Z,14.58
2022-09-02T06:00:18.613Z,14.56
2022-09-02T06:08:40.766Z,14.37
2022-09-02T06:11:29.386Z,14.42
2022-09-02T06:17:09.947Z,14.71
2022-09-02T06:22:45.960Z,14.91
2022-09-02T06:25:34.537Z,14.97
2022-09-02T06:28:22.932Z,15.04
2022-09-02T06:34:01.668Z,15.14
2022-09-02T06:36:52.756Z,15.02
2022-09-02T06:42:28.415Z,15.30
2022-09-02T06:45:16.944Z,15.38
2022-09-02T06:48:07.932Z,15.37
2022-09-02T06:53:42.371Z,15.50
2022-09-02T06:59:19.759Z,15.83
2022-09-02T07:05:07.853Z,16.83
2022-09-02T07:10:43.444Z,18.26
2022-09-02T07:16:27.195Z,19.11
2022-09-02T07:21:49.279Z,19.53
2022-09-02T07:24:38.676Z,19.46
2022-09-02T07:30:15.937Z,19.63
2022-09-02T07:33:05.469Z,19.75
2022-09-02T07:35:54.017Z,19.95
2022-09-02T07:41:30.948Z,19.92
2022-09-02T07:47:20.718Z,20.31
2022-09-02T07:50:20.199Z,20.44
2022-09-02T07:53:00.956Z,20.45
2022-09-02T07:58:36.934Z,20.65
2022-09-02T08:01:26.337Z,20.33
2022-09-02T08:07:04.777Z,19.99
2022-09-02T08:12:42.041Z,19.77
2022-09-02T08:15:31.175Z,19.95
2022-09-02T08:21:10.715Z,20.08
2022-09-02T08:27:00.810Z,21.01
2022-09-02T08:29:49.135Z,20.92
2022-09-02T08:32:37.989Z,20.47
2022-09-02T08:38:16.650Z,19.73
2022-09-02T08:43:52.720Z,20.54
2022-09-02T08:49:31.110Z,20.57
2022-09-02T08:55:10.003Z,20.03
2022-09-02T09:03:25.109Z,20.19
2022-09-02T09:06:15.854Z,20.28
2022-09-02T09:09:08.511Z,20.14
2022-09-02T09:14:41.725Z,19.81
2022-09-02T09:20:22.769Z,20.13
2022-09-02T09:25:54.805Z,20.43
2022-09-02T09:31:31.190Z,20.62
2022-09-02T09:37:08.025Z,20.94
2022-09-02T09:42:49.581Z,21.34
2022-09-02T09:45:37.289Z,21.22
2022-09-02T09:51:17.810Z,21.55
2022-09-02T09:54:17.293Z,21.67
2022-09-02T09:57:21.925Z,21.64
2022-09-02T10:03:03.480Z,21.27
2022-09-02T10:08:35.578Z,21.66
2022-09-02T10:14:14.077Z,22.07
2022-09-02T10:20:09.439Z,22.41
2022-09-02T10:26:02.707Z,22.56
2022-09-02T10:35:36.864Z,22.74
2022-09-02T10:44:33.730Z,22.91
2022-09-02T10:50:15.440Z,23.04
2022-09-02T10:53:16.095Z,23.09
2022-09-02T10:58:50.103Z,23.39
2022-09-02T11:04:28.085Z,23.16
2022-09-02T11:07:19.654Z,23.26
2022-09-02T11:10:10.784Z,23.17
2022-09-02T11:18:40.659Z,23.26
2022-09-02T11:24:28.061Z,23.52
2022-09-02T11:30:20.863Z,23.45
2022-09-02T11:35:57.411Z,23.88
2022-09-02T11:38:48.954Z,24.11
2022-09-02T11:45:03.177Z,24.42
2022-09-02T11:48:28.466Z,24.46
2022-09-02T11:51:40.395Z,24.48
2022-09-02T11:54:31.157Z,24.49
2022-09-02T11:57:24.924Z,24.62
2022-09-02T12:00:30.748Z,24.42
2022-09-02T12:06:24.119Z,24.33
2022-09-02T12:09:14.402Z,24.60
2022-09-02T12:15:16.819Z,24.99
2022-09-02T12:21:23.243Z,24.93
2022-09-02T12:27:26.997Z,24.84
2022-09-02T12:33:07.943Z,24.99
2022-09-02T12:35:58.522Z,24.93
2022-09-02T12:41:36.337Z,25.06
2022-09-02T12:47:10.826Z,25.04
2022-09-02T12:52:49.763Z,25.32
2022-09-02T12:58:21.595Z,25.49
2022-09-02T13:01:18.694Z,25.28
2022-09-02T13:10:51.669Z,25.57
2022-09-02T13:14:29.833Z,25.37
2022-09-02T13:20:46.495Z,25.31
2022-09-02T13:23:57.782Z,25.42
2022-09-02T13:33:03.008Z,25.47
2022-09-02T13:38:42.474Z,25.08
2022-09-02T13:44:25.370Z,24.98
2022-09-02T13:47:17.644Z,24.71
2022-09-02T13:55:44.927Z,24.72
2022-09-02T14:01:27.069Z,24.50
2022-09-02T14:04:17.298Z,24.49
2022-09-02T14:09:54.270Z,24.90
2022-09-02T14:15:35.868Z,25.21
2022-09-02T14:21:10.218Z,25.60
2022-09-02T14:23:58.335Z,25.97
2022-09-02T14:26:49.186Z,25.97
2022-09-02T14:29:39.434Z,26.10
2022-09-02T14:35:23.651Z,26.13
2022-09-02T14:38:13.329Z,25.93
2022-09-02T14:43:52.278Z,25.67
2022-09-02T14:46:45.873Z,25.58
2022-09-02T14:52:21.797Z,25.41
2022-09-02T14:58:04.314Z,25.24
2022-09-02T15:00:55.477Z,24.96
2022-09-02T15:06:26.690Z,24.85
2022-09-02T15:12:00.799Z,25.09
2022-09-02T15:14:46.850Z,25.09
2022-09-02T15:17:35.149Z,24.96
2022-09-02T15:23:11.923Z,25.01
2022-09-02T15:28:49.421Z,24.61
2022-09-02T15:31:37.726Z,24.25
2022-09-02T15:37:17.578Z,24.31
2022-09-02T15:42:49.989Z,24.12
2022-09-02T15:45:41.123Z,24.09
2022-09-02T15:48:29.528Z,23.93
2022-09-02T15:53:59.333Z,23.84
2022-09-02T15:56:48.403Z,23.66
2022-09-02T16:02:27.299Z,23.67
2022-09-02T16:08:01.925Z,23.55
2022-09-02T16:10:49.890Z,23.47
2022-09-02T16:13:39.235Z,23.38
2022-09-02T16:19:30.635Z,23.45
2022-09-02T16:25:12.580Z,23.28
2022-09-02T16:30:48.696Z,23.20
2022-09-02T16:36:24.374Z,23.12
2022-09-02T16:42:02.069Z,23.24
2022-09-02T16:47:36.871Z,23.20
2022-09-02T16:53:16.068Z,23.35
2022-09-02T16:56:04.854Z,23.32
2022-09-02T16:58:53.229Z,23.33
2022-09-02T17:04:20.576Z,23.16
2022-09-02T17:09:57.580Z,22.98
2022-09-02T17:12:45.976Z,22.77
2022-09-02T17:18:20.771Z,22.55
2022-09-02T17:21:19.749Z,22.32
2022-09-02T17:24:09.502Z,22.33
2022-09-02T17:29:49.849Z,21.86
2022-09-02T17:32:31.335Z,21.64
2022-09-02T17:37:59.250Z,21.38
2022-09-02T17:43:38.233Z,21.23
2022-09-02T17:49:17.308Z,21.06
2022-09-02T17:54:53.903Z,20.89
2022-09-02T18:00:41.343Z,20.95
2022-09-02T18:06:27.203Z,20.93
2022-09-02T18:14:56.777Z,20.77
2022-09-02T18:17:53.386Z,20.71
2022-09-02T18:20:45.648Z,20.65
2022-09-02T18:23:54.717Z,20.66
2022-09-02T18:36:17.615Z,20.62
2022-09-02T18:41:58.250Z,20.68
2022-09-02T18:47:34.890Z,20.60
2022-09-02T18:53:25.485Z,20.53
2022-09-02T19:11:42.787Z,20.19
2022-09-02T19:17:32.571Z,20.24
2022-09-02T19:20:22.747Z,20.16
2022-09-02T19:23:12.967Z,20.05
2022-09-02T19:28:48.264Z,19.58
2022-09-02T19:34:31.474Z,19.53
2022-09-02T19:37:22.718Z,19.37
2022-09-02T19:43:01.446Z,19.35
2022-09-02T19:48:53.495Z,19.44
2022-09-02T19:54:25.140Z,19.35
2022-09-02T19:57:16.658Z,19.33
2022-09-02T20:02:57.741Z,19.42
2022-09-02T20:08:35.217Z,19.29
2022-09-02T20:14:09.635Z,19.06
2022-09-02T20:19:56.536Z,18.95
2022-09-02T20:25:40.466Z,18.99
2022-09-02T20:32:08.180Z,19.29
2022-09-02T20:37:53.146Z,18.92
2022-09-02T20:40:46.708Z,18.81
2022-09-02T20:49:53.732Z,18.71
2022-09-02T20:55:53.221Z,18.88
2022-09-02T21:01:27.845Z,18.69
2022-09-02T21:07:16.967Z,18.50
2022-09-02T21:10:31.464Z,18.50
2022-09-02T21:16:04.847Z,18.49
2022-09-02T21:22:04.203Z,18.41
2022-09-02T21:27:39.519Z,18.49
2022-09-02T21:30:29.591Z,18.37
2022-09-02T21:33:19.092Z,18.33
2022-09-02T21:36:08.366Z,18.40
2022-09-02T21:41:50.643Z,18.53
2022-09-02T21:44:45.803Z,18.28
2022-09-02T21:47:36.736Z,18.19
2022-09-02T21:50:28.751Z,18.08
2022-09-02T21:53:19.895Z,18.15
2022-09-02T21:56:16.183Z,18.10
2022-09-02T22:02:14.992Z,18.20
2022-09-02T22:05:07.967Z,18.26
2022-09-02T22:10:52.019Z,18.01
2022-09-02T22:16:26.269Z,18.05
2022-09-02T22:22:08.118Z,18.06
2022-09-02T22:24:57.898Z,17.89
2022-09-02T22:30:32.096Z,17.84
2022-09-02T22:36:08.878Z,17.86
2022-09-02T22:41:56.672Z,17.96
2022-09-02T22:47:54.130Z,17.82
2022-09-02T22:53:31.047Z,17.79
2022-09-02T22:59:36.427Z,17.57
2022-09-02T23:02:28.077Z,17.49
2022-09-02T23:08:10.018Z,17.68
2022-09-02T23:11:02.716Z,17.48
2022-09-02T23:16:51.599Z,17.61
2022-09-02T23:22:37.624Z,17.76
2022-09-02T23:28:21.150Z,17.77
2022-09-02T23:34:06.416Z,17.87
2022-09-02T23:39:46.620Z,17.96
2022-09-02T23:42:35.913Z,17.92
2022-09-02T23:48:30.501Z,17.98
2022-09-02T23:54:18.349Z,17.84
2022-09-02T23:57:15.452Z,17.78
